sensor_id;sensor_type;location;lat;lon;timestamp;P1;durP1;ratioP1;P2;durP2;ratioP2
7398;SDS011;3740;50.700;7.184;2022-08-19T00:00:33;11.63;;;10.73;;
7398;SDS011;3740;50.700;7.184;2022-08-19T00:03:09;11.07;;;10.18;;
7398;SDS011;3740;50.700;7.184;2022-08-19T00:05:36;11.48;;;10.50;;
7398;SDS011;3740;50.700;7.184;2022-08-19T00:08:02;10.57;;;9.77;;
7398;SDS011;3740;50.700;7.184;2022-08-19T00:10:27;10.88;;;9.98;;
7398;SDS011;3740;50.700;7.184;2022-08-19T00:12:53;11.10;;;10.20;;
7398;SDS011;3740;50.700;7.184;2022-08-19T00:15:20;11.65;;;10.75;;
7398;SDS011;3740;50.700;7.184;2022-08-19T00:17:50;10.35;;;9.63;;
7398;SDS011;3740;50.700;7.184;2022-08-19T00:20:18;10.45;;;9.65;;
7398;SDS011;3740;50.700;7.184;2022-08-19T00:22:46;10.50;;;9.60;;
7398;SDS011;3740;50.700;7.184;2022-08-19T00:25:12;10.70;;;9.90;;
7398;SDS011;3740;50.700;7.184;2022-08-19T00:27:39;10.23;;;9.52;;
7398;SDS011;3740;50.700;7.184;2022-08-19T00:30:05;10.52;;;9.80;;
7398;SDS011;3740;50.700;7.184;2022-08-19T00:32:32;10.43;;;9.63;;
7398;SDS011;3740;50.700;7.184;2022-08-19T00:34:59;10.10;;;9.30;;
7398;SDS011;3740;50.700;7.184;2022-08-19T00:37:25;10.27;;;9.55;;
7398;SDS011;3740;50.700;7.184;2022-08-19T00:39:51;9.88;;;9.13;;
7398;SDS011;3740;50.700;7.184;2022-08-19T00:42:19;9.73;;;9.02;;
7398;SDS011;3740;50.700;7.184;2022-08-19T00:44:46;10.07;;;9.18;;
7398;SDS011;3740;50.700;7.184;2022-08-19T00:47:12;10.30;;;9.40;;
7398;SDS011;3740;50.700;7.184;2022-08-19T00:49:42;9.85;;;9.13;;
7398;SDS011;3740;50.700;7.184;2022-08-19T00:52:32;9.95;;;9.15;;
7398;SDS011;3740;50.700;7.184;2022-08-19T00:55:03;9.65;;;8.85;;
7398;SDS011;3740;50.700;7.184;2022-08-19T00:57:36;9.77;;;9.00;;
7398;SDS011;3740;50.700;7.184;2022-08-19T01:00:09;10.00;;;9.20;;
7398;SDS011;3740;50.700;7.184;2022-08-19T01:02:38;9.52;;;8.82;;
7398;SDS011;3740;50.700;7.184;2022-08-19T01:05:06;9.52;;;8.73;;
7398;SDS011;3740;50.700;7.184;2022-08-19T01:07:35;9.88;;;9.05;;
7398;SDS011;3740;50.700;7.184;2022-08-19T01:10:04;9.65;;;8.85;;
7398;SDS011;3740;50.700;7.184;2022-08-19T01:12:32;9.43;;;8.73;;
7398;SDS011;3740;50.700;7.184;2022-08-19T01:14:59;9.77;;;9.02;;
7398;SDS011;3740;50.700;7.184;2022-08-19T01:17:25;9.82;;;9.13;;
7398;SDS011;3740;50.700;7.184;2022-08-19T01:19:50;9.60;;;8.90;;
7398;SDS011;3740;50.700;7.184;2022-08-19T01:24:48;9.98;;;9.18;;
7398;SDS011;3740;50.700;7.184;2022-08-19T01:27:15;10.20;;;9.40;;
7398;SDS011;3740;50.700;7.184;2022-08-19T01:29:42;9.60;;;8.90;;
7398;SDS011;3740;50.700;7.184;2022-08-19T01:32:11;9.93;;;9.23;;
7398;SDS011;3740;50.700;7.184;2022-08-19T01:34:39;9.90;;;9.20;;
7398;SDS011;3740;50.700;7.184;2022-08-19T01:37:06;10.30;;;9.50;;
7398;SDS011;3740;50.700;7.184;2022-08-19T01:39:36;9.70;;;9.00;;
7398;SDS011;3740;50.700;7.184;2022-08-19T01:42:03;9.88;;;9.18;;
7398;SDS011;3740;50.700;7.184;2022-08-19T01:44:29;9.20;;;8.45;;
7398;SDS011;3740;50.700;7.184;2022-08-19T01:46:55;9.43;;;8.73;;
7398;SDS011;3740;50.700;7.184;2022-08-19T01:49:22;9.60;;;8.90;;
7398;SDS011;3740;50.700;7.184;2022-08-19T01:51:51;9.55;;;8.80;;
7398;SDS011;3740;50.700;7.184;2022-08-19T01:54:18;10.00;;;9.10;;
7398;SDS011;3740;50.700;7.184;2022-08-19T01:56:46;10.32;;;9.43;;
7398;SDS011;3740;50.700;7.184;2022-08-19T01:59:16;9.57;;;8.82;;
7398;SDS011;3740;50.700;7.184;2022-08-19T02:01:43;10.05;;;9.25;;
7398;SDS011;3740;50.700;7.184;2022-08-19T02:04:10;9.93;;;9.13;;
7398;SDS011;3740;50.700;7.184;2022-08-19T02:06:35;10.43;;;9.63;;
7398;SDS011;3740;50.700;7.184;2022-08-19T02:09:02;10.38;;;9.57;;
7398;SDS011;3740;50.700;7.184;2022-08-19T02:11:29;9.93;;;9.13;;
7398;SDS011;3740;50.700;7.184;2022-08-19T02:13:59;9.82;;;8.93;;
7398;SDS011;3740;50.700;7.184;2022-08-19T02:16:27;10.27;;;9.48;;
7398;SDS011;3740;50.700;7.184;2022-08-19T02:18:53;10.13;;;9.35;;
7398;SDS011;3740;50.700;7.184;2022-08-19T02:21:20;9.80;;;8.90;;
7398;SDS011;3740;50.700;7.184;2022-08-19T02:23:47;10.82;;;9.98;;
7398;SDS011;3740;50.700;7.184;2022-08-19T02:26:14;10.05;;;9.35;;
7398;SDS011;3740;50.700;7.184;2022-08-19T02:28:40;9.52;;;8.82;;
7398;SDS011;3740;50.700;7.184;2022-08-19T02:31:14;10.07;;;9.27;;
7398;SDS011;3740;50.700;7.184;2022-08-19T02:33:42;10.95;;;10.15;;
7398;SDS011;3740;50.700;7.184;2022-08-19T02:36:08;10.48;;;9.68;;
7398;SDS011;3740;50.700;7.184;2022-08-19T02:38:35;9.82;;;9.13;;
7398;SDS011;3740;50.700;7.184;2022-08-19T02:41:24;10.10;;;9.40;;
7398;SDS011;3740;50.700;7.184;2022-08-19T02:43:50;10.52;;;9.73;;
7398;SDS011;3740;50.700;7.184;2022-08-19T02:46:17;9.98;;;9.18;;
7398;SDS011;3740;50.700;7.184;2022-08-19T02:48:50;9.68;;;8.88;;
7398;SDS011;3740;50.700;7.184;2022-08-19T02:51:28;10.57;;;9.88;;
7398;SDS011;3740;50.700;7.184;2022-08-19T02:53:56;9.80;;;9.10;;
7398;SDS011;3740;50.700;7.184;2022-08-19T02:56:22;10.15;;;9.35;;
7398;SDS011;3740;50.700;7.184;2022-08-19T02:58:49;10.25;;;9.40;;
7398;SDS011;3740;50.700;7.184;2022-08-19T03:01:34;10.25;;;9.27;;
7398;SDS011;3740;50.700;7.184;2022-08-19T03:04:00;9.52;;;8.73;;
7398;SDS011;3740;50.700;7.184;2022-08-19T03:06:28;10.98;;;10.02;;
7398;SDS011;3740;50.700;7.184;2022-08-19T03:08:55;11.00;;;10.13;;
7398;SDS011;3740;50.700;7.184;2022-08-19T03:11:23;10.63;;;9.73;;
7398;SDS011;3740;50.700;7.184;2022-08-19T03:13:49;10.10;;;9.30;;
7398;SDS011;3740;50.700;7.184;2022-08-19T03:16:15;10.32;;;9.52;;
7398;SDS011;3740;50.700;7.184;2022-08-19T03:18:46;10.27;;;9.43;;
7398;SDS011;3740;50.700;7.184;2022-08-19T03:21:22;10.68;;;9.88;;
7398;SDS011;3740;50.700;7.184;2022-08-19T03:23:49;9.75;;;9.05;;
7398;SDS011;3740;50.700;7.184;2022-08-19T03:26:18;10.40;;;9.60;;
7398;SDS011;3740;50.700;7.184;2022-08-19T03:28:44;9.82;;;9.13;;
7398;SDS011;3740;50.700;7.184;2022-08-19T03:31:14;9.95;;;9.15;;
7398;SDS011;3740;50.700;7.184;2022-08-19T03:33:42;10.48;;;9.55;;
7398;SDS011;3740;50.700;7.184;2022-08-19T03:36:10;10.20;;;9.43;;
7398;SDS011;3740;50.700;7.184;2022-08-19T03:38:45;10.18;;;9.38;;
7398;SDS011;3740;50.700;7.184;2022-08-19T03:41:23;10.32;;;9.57;;
7398;SDS011;3740;50.700;7.184;2022-08-19T03:43:51;10.82;;;9.98;;
7398;SDS011;3740;50.700;7.184;2022-08-19T03:46:21;10.80;;;9.93;;
7398;SDS011;3740;50.700;7.184;2022-08-19T03:48:53;10.77;;;9.98;;
7398;SDS011;3740;50.700;7.184;2022-08-19T03:51:23;10.80;;;10.07;;
7398;SDS011;3740;50.700;7.184;2022-08-19T03:53:55;10.45;;;9.55;;
7398;SDS011;3740;50.700;7.184;2022-08-19T03:56:22;10.40;;;9.50;;
7398;SDS011;3740;50.700;7.184;2022-08-19T03:58:50;10.65;;;9.85;;
7398;SDS011;3740;50.700;7.184;2022-08-19T04:01:18;11.30;;;10.35;;
7398;SDS011;3740;50.700;7.184;2022-08-19T04:03:46;11.25;;;10.35;;
7398;SDS011;3740;50.700;7.184;2022-08-19T04:06:25;10.60;;;9.80;;
7398;SDS011;3740;50.700;7.184;2022-08-19T04:08:54;11.07;;;10.18;;
7398;SDS011;3740;50.700;7.184;2022-08-19T04:11:25;11.38;;;10.40;;
7398;SDS011;3740;50.700;7.184;2022-08-19T04:13:54;10.85;;;10.05;;
7398;SDS011;3740;50.700;7.184;2022-08-19T04:16:24;10.90;;;10.00;;
7398;SDS011;3740;50.700;7.184;2022-08-19T04:18:59;10.50;;;9.65;;
7398;SDS011;3740;50.700;7.184;2022-08-19T04:21:26;11.13;;;10.27;;
7398;SDS011;3740;50.700;7.184;2022-08-19T04:23:55;11.15;;;10.18;;
7398;SDS011;3740;50.700;7.184;2022-08-19T04:26:23;10.13;;;9.32;;
7398;SDS011;3740;50.700;7.184;2022-08-19T04:28:50;10.10;;;9.30;;
7398;SDS011;3740;50.700;7.184;2022-08-19T04:31:18;10.65;;;9.80;;
7398;SDS011;3740;50.700;7.184;2022-08-19T04:33:46;10.80;;;9.98;;
7398;SDS011;3740;50.700;7.184;2022-08-19T04:36:21;11.15;;;10.32;;
7398;SDS011;3740;50.700;7.184;2022-08-19T04:38:49;11.40;;;10.50;;
7398;SDS011;3740;50.700;7.184;2022-08-19T04:41:18;11.13;;;10.27;;
7398;SDS011;3740;50.700;7.184;2022-08-19T04:44:02;11.05;;;10.15;;
7398;SDS011;3740;50.700;7.184;2022-08-19T04:46:30;11.60;;;10.50;;
7398;SDS011;3740;50.700;7.184;2022-08-19T04:48:57;11.50;;;10.50;;
7398;SDS011;3740;50.700;7.184;2022-08-19T04:51:26;11.60;;;10.70;;
7398;SDS011;3740;50.700;7.184;2022-08-19T04:53:52;11.68;;;10.77;;
7398;SDS011;3740;50.700;7.184;2022-08-19T04:56:19;11.27;;;10.48;;
7398;SDS011;3740;50.700;7.184;2022-08-19T04:58:52;11.07;;;10.05;;
7398;SDS011;3740;50.700;7.184;2022-08-19T05:01:23;11.50;;;10.45;;
7398;SDS011;3740;50.700;7.184;2022-08-19T05:03:50;11.73;;;10.75;;
7398;SDS011;3740;50.700;7.184;2022-08-19T05:06:18;11.73;;;10.83;;
7398;SDS011;3740;50.700;7.184;2022-08-19T05:08:45;12.75;;;11.65;;
7398;SDS011;3740;50.700;7.184;2022-08-19T05:11:22;12.02;;;11.07;;
7398;SDS011;3740;50.700;7.184;2022-08-19T05:13:49;11.38;;;10.57;;
7398;SDS011;3740;50.700;7.184;2022-08-19T05:16:16;11.30;;;10.40;;
7398;SDS011;3740;50.700;7.184;2022-08-19T05:18:43;11.00;;;10.10;;
7398;SDS011;3740;50.700;7.184;2022-08-19T05:21:30;13.05;;;12.15;;
7398;SDS011;3740;50.700;7.184;2022-08-19T05:24:15;11.75;;;10.85;;
7398;SDS011;3740;50.700;7.184;2022-08-19T05:26:41;12.15;;;11.15;;
7398;SDS011;3740;50.700;7.184;2022-08-19T05:29:11;12.00;;;11.00;;
7398;SDS011;3740;50.700;7.184;2022-08-19T05:31:38;12.02;;;11.07;;
7398;SDS011;3740;50.700;7.184;2022-08-19T05:34:03;11.50;;;10.70;;
7398;SDS011;3740;50.700;7.184;2022-08-19T05:36:33;10.98;;;10.18;;
7398;SDS011;3740;50.700;7.184;2022-08-19T05:39:04;12.15;;;11.25;;
7398;SDS011;3740;50.700;7.184;2022-08-19T05:41:30;12.43;;;11.43;;
7398;SDS011;3740;50.700;7.184;2022-08-19T05:43:57;12.85;;;11.85;;
7398;SDS011;3740;50.700;7.184;2022-08-19T05:46:25;12.45;;;11.35;;
7398;SDS011;3740;50.700;7.184;2022-08-19T05:48:51;12.32;;;11.32;;
7398;SDS011;3740;50.700;7.184;2022-08-19T05:51:17;12.52;;;11.30;;
7398;SDS011;3740;50.700;7.184;2022-08-19T05:53:43;12.27;;;11.18;;
7398;SDS011;3740;50.700;7.184;2022-08-19T05:56:14;13.25;;;12.25;;
7398;SDS011;3740;50.700;7.184;2022-08-19T05:58:41;12.77;;;11.77;;
7398;SDS011;3740;50.700;7.184;2022-08-19T06:01:10;12.07;;;11.07;;
7398;SDS011;3740;50.700;7.184;2022-08-19T06:03:38;11.93;;;11.00;;
7398;SDS011;3740;50.700;7.184;2022-08-19T06:06:05;12.57;;;11.50;;
7398;SDS011;3740;50.700;7.184;2022-08-19T06:08:33;11.60;;;10.70;;
7398;SDS011;3740;50.700;7.184;2022-08-19T06:11:11;13.38;;;12.35;;
7398;SDS011;3740;50.700;7.184;2022-08-19T06:14:12;15.20;;;13.93;;
7398;SDS011;3740;50.700;7.184;2022-08-19T06:16:40;15.05;;;13.88;;
7398;SDS011;3740;50.700;7.184;2022-08-19T06:19:08;15.63;;;14.35;;
7398;SDS011;3740;50.700;7.184;2022-08-19T06:21:39;14.77;;;13.60;;
7398;SDS011;3740;50.700;7.184;2022-08-19T06:24:07;16.45;;;15.10;;
7398;SDS011;3740;50.700;7.184;2022-08-19T06:26:35;23.83;;;21.92;;
7398;SDS011;3740;50.700;7.184;2022-08-19T06:29:03;27.90;;;25.58;;
7398;SDS011;3740;50.700;7.184;2022-08-19T06:31:32;27.38;;;25.08;;
7398;SDS011;3740;50.700;7.184;2022-08-19T06:34:02;30.63;;;28.00;;
7398;SDS011;3740;50.700;7.184;2022-08-19T06:36:30;26.77;;;24.38;;
7398;SDS011;3740;50.700;7.184;2022-08-19T06:38:59;25.75;;;23.55;;
7398;SDS011;3740;50.700;7.184;2022-08-19T06:41:26;24.83;;;22.73;;
7398;SDS011;3740;50.700;7.184;2022-08-19T06:43:53;32.42;;;29.40;;
7398;SDS011;3740;50.700;7.184;2022-08-19T06:46:20;27.65;;;25.35;;
7398;SDS011;3740;50.700;7.184;2022-08-19T06:48:46;27.27;;;25.08;;
7398;SDS011;3740;50.700;7.184;2022-08-19T06:51:13;27.30;;;24.95;;
7398;SDS011;3740;50.700;7.184;2022-08-19T06:53:43;32.30;;;29.52;;
7398;SDS011;3740;50.700;7.184;2022-08-19T06:56:11;23.30;;;21.30;;
7398;SDS011;3740;50.700;7.184;2022-08-19T06:58:38;26.60;;;24.30;;
7398;SDS011;3740;50.700;7.184;2022-08-19T07:01:04;28.48;;;25.95;;
7398;SDS011;3740;50.700;7.184;2022-08-19T07:03:30;23.08;;;21.10;;
7398;SDS011;3740;50.700;7.184;2022-08-19T07:05:58;26.65;;;24.25;;
7398;SDS011;3740;50.700;7.184;2022-08-19T07:08:35;27.55;;;24.98;;
7398;SDS011;3740;50.700;7.184;2022-08-19T07:11:05;33.42;;;30.20;;
7398;SDS011;3740;50.700;7.184;2022-08-19T07:13:32;29.98;;;27.25;;
7398;SDS011;3740;50.700;7.184;2022-08-19T07:16:06;26.70;;;24.30;;
7398;SDS011;3740;50.700;7.184;2022-08-19T07:18:33;26.13;;;23.83;;
7398;SDS011;3740;50.700;7.184;2022-08-19T07:21:06;22.45;;;20.65;;
7398;SDS011;3740;50.700;7.184;2022-08-19T07:23:36;28.23;;;25.65;;
7398;SDS011;3740;50.700;7.184;2022-08-19T07:26:21;33.65;;;30.48;;
7398;SDS011;3740;50.700;7.184;2022-08-19T07:28:49;28.95;;;26.42;;
7398;SDS011;3740;50.700;7.184;2022-08-19T07:31:17;25.02;;;22.83;;
7398;SDS011;3740;50.700;7.184;2022-08-19T07:33:45;26.25;;;23.83;;
7398;SDS011;3740;50.700;7.184;2022-08-19T07:36:12;23.42;;;21.42;;
7398;SDS011;3740;50.700;7.184;2022-08-19T07:38:40;26.73;;;24.33;;
7398;SDS011;3740;50.700;7.184;2022-08-19T07:41:08;26.85;;;24.38;;
7398;SDS011;3740;50.700;7.184;2022-08-19T07:43:42;27.70;;;25.25;;
7398;SDS011;3740;50.700;7.184;2022-08-19T07:46:09;24.58;;;22.27;;
7398;SDS011;3740;50.700;7.184;2022-08-19T07:48:35;29.27;;;26.65;;
7398;SDS011;3740;50.700;7.184;2022-08-19T07:51:05;24.60;;;22.42;;
7398;SDS011;3740;50.700;7.184;2022-08-19T07:53:33;26.77;;;24.40;;
7398;SDS011;3740;50.700;7.184;2022-08-19T07:56:01;20.55;;;18.75;;
7398;SDS011;3740;50.700;7.184;2022-08-19T07:58:31;19.90;;;18.02;;
7398;SDS011;3740;50.700;7.184;2022-08-19T08:01:02;26.23;;;23.52;;
7398;SDS011;3740;50.700;7.184;2022-08-19T08:03:29;20.75;;;18.88;;
7398;SDS011;3740;50.700;7.184;2022-08-19T08:06:14;20.67;;;18.85;;
7398;SDS011;3740;50.700;7.184;2022-08-19T08:09:01;23.60;;;21.40;;
7398;SDS011;3740;50.700;7.184;2022-08-19T08:11:45;18.63;;;17.02;;
7398;SDS011;3740;50.700;7.184;2022-08-19T08:14:18;21.20;;;19.33;;
7398;SDS011;3740;50.700;7.184;2022-08-19T08:16:52;24.58;;;22.30;;
7398;SDS011;3740;50.700;7.184;2022-08-19T08:19:19;30.83;;;27.83;;
7398;SDS011;3740;50.700;7.184;2022-08-19T08:21:47;24.80;;;22.67;;
7398;SDS011;3740;50.700;7.184;2022-08-19T08:24:13;26.35;;;23.52;;
7398;SDS011;3740;50.700;7.184;2022-08-19T08:26:40;18.35;;;16.70;;
7398;SDS011;3740;50.700;7.184;2022-08-19T08:29:06;17.45;;;16.02;;
7398;SDS011;3740;50.700;7.184;2022-08-19T08:31:36;25.13;;;22.92;;
7398;SDS011;3740;50.700;7.184;2022-08-19T08:34:03;23.27;;;21.27;;
7398;SDS011;3740;50.700;7.184;2022-08-19T08:36:28;19.38;;;17.67;;
7398;SDS011;3740;50.700;7.184;2022-08-19T08:38:54;19.52;;;17.83;;
7398;SDS011;3740;50.700;7.184;2022-08-19T08:45:13;21.70;;;19.70;;
7398;SDS011;3740;50.700;7.184;2022-08-19T08:47:23;16.27;;;14.77;;
7398;SDS011;3740;50.700;7.184;2022-08-19T08:52:29;17.23;;;15.55;;
7398;SDS011;3740;50.700;7.184;2022-08-19T08:55:03;13.70;;;12.32;;
7398;SDS011;3740;50.700;7.184;2022-08-19T08:57:55;17.23;;;15.73;;
7398;SDS011;3740;50.700;7.184;2022-08-19T09:00:32;17.63;;;15.93;;
7398;SDS011;3740;50.700;7.184;2022-08-19T09:03:00;16.48;;;14.88;;
7398;SDS011;3740;50.700;7.184;2022-08-19T09:05:33;18.83;;;17.13;;
7398;SDS011;3740;50.700;7.184;2022-08-19T09:08:17;15.50;;;14.07;;
7398;SDS011;3740;50.700;7.184;2022-08-19T09:10:54;13.23;;;11.98;;
7398;SDS011;3740;50.700;7.184;2022-08-19T09:16:17;15.02;;;13.63;;
7398;SDS011;3740;50.700;7.184;2022-08-19T09:21:17;14.02;;;12.82;;
7398;SDS011;3740;50.700;7.184;2022-08-19T09:23:45;16.02;;;14.55;;
7398;SDS011;3740;50.700;7.184;2022-08-19T09:26:12;15.10;;;13.75;;
7398;SDS011;3740;50.700;7.184;2022-08-19T09:28:41;17.65;;;16.05;;
7398;SDS011;3740;50.700;7.184;2022-08-19T09:31:09;13.70;;;12.40;;
7398;SDS011;3740;50.700;7.184;2022-08-19T09:33:54;18.67;;;16.95;;
7398;SDS011;3740;50.700;7.184;2022-08-19T09:36:22;16.70;;;15.10;;
7398;SDS011;3740;50.700;7.184;2022-08-19T09:38:50;15.18;;;13.77;;
7398;SDS011;3740;50.700;7.184;2022-08-19T09:41:18;16.00;;;14.50;;
7398;SDS011;3740;50.700;7.184;2022-08-19T09:43:47;13.80;;;12.50;;
7398;SDS011;3740;50.700;7.184;2022-08-19T09:46:17;13.25;;;12.15;;
7398;SDS011;3740;50.700;7.184;2022-08-19T09:48:46;14.13;;;12.85;;
7398;SDS011;3740;50.700;7.184;2022-08-19T09:51:14;19.00;;;17.25;;
7398;SDS011;3740;50.700;7.184;2022-08-19T09:53:41;18.67;;;16.88;;
7398;SDS011;3740;50.700;7.184;2022-08-19T09:56:10;15.52;;;14.10;;
7398;SDS011;3740;50.700;7.184;2022-08-19T09:58:37;17.92;;;16.33;;
7398;SDS011;3740;50.700;7.184;2022-08-19T10:01:04;19.65;;;17.90;;
7398;SDS011;3740;50.700;7.184;2022-08-19T10:03:31;16.95;;;15.43;;
7398;SDS011;3740;50.700;7.184;2022-08-19T10:05:59;20.52;;;18.65;;
7398;SDS011;3740;50.700;7.184;2022-08-19T10:08:27;22.98;;;20.88;;
7398;SDS011;3740;50.700;7.184;2022-08-19T10:10:55;20.73;;;18.83;;
7398;SDS011;3740;50.700;7.184;2022-08-19T10:13:23;18.30;;;16.50;;
7398;SDS011;3740;50.700;7.184;2022-08-19T10:15:51;15.38;;;13.80;;
7398;SDS011;3740;50.700;7.184;2022-08-19T10:18:20;21.92;;;19.92;;
7398;SDS011;3740;50.700;7.184;2022-08-19T10:20:46;15.52;;;14.13;;
7398;SDS011;3740;50.700;7.184;2022-08-19T10:23:13;23.67;;;21.48;;
7398;SDS011;3740;50.700;7.184;2022-08-19T10:25:43;23.27;;;21.23;;
7398;SDS011;3740;50.700;7.184;2022-08-19T10:28:09;20.33;;;18.50;;
7398;SDS011;3740;50.700;7.184;2022-08-19T10:30:39;19.38;;;17.60;;
7398;SDS011;3740;50.700;7.184;2022-08-19T10:33:05;21.02;;;19.15;;
7398;SDS011;3740;50.700;7.184;2022-08-19T10:35:31;19.20;;;17.52;;
7398;SDS011;3740;50.700;7.184;2022-08-19T10:37:57;25.00;;;22.75;;
7398;SDS011;3740;50.700;7.184;2022-08-19T10:40:25;19.75;;;18.05;;
7398;SDS011;3740;50.700;7.184;2022-08-19T10:42:52;20.83;;;18.98;;
7398;SDS011;3740;50.700;7.184;2022-08-19T10:45:20;22.00;;;20.15;;
7398;SDS011;3740;50.700;7.184;2022-08-19T10:47:49;18.58;;;16.88;;
7398;SDS011;3740;50.700;7.184;2022-08-19T10:50:15;15.60;;;14.05;;
7398;SDS011;3740;50.700;7.184;2022-08-19T10:53:06;13.75;;;12.55;;
7398;SDS011;3740;50.700;7.184;2022-08-19T10:55:35;19.80;;;18.00;;
7398;SDS011;3740;50.700;7.184;2022-08-19T10:58:21;15.38;;;14.23;;
7398;SDS011;3740;50.700;7.184;2022-08-19T11:00:51;16.08;;;14.85;;
7398;SDS011;3740;50.700;7.184;2022-08-19T11:03:18;14.93;;;13.75;;
7398;SDS011;3740;50.700;7.184;2022-08-19T11:05:44;12.40;;;11.40;;
7398;SDS011;3740;50.700;7.184;2022-08-19T11:08:09;14.90;;;13.60;;
7398;SDS011;3740;50.700;7.184;2022-08-19T11:10:41;15.63;;;14.30;;
7398;SDS011;3740;50.700;7.184;2022-08-19T11:13:07;11.77;;;10.73;;
7398;SDS011;3740;50.700;7.184;2022-08-19T11:15:33;12.60;;;11.50;;
7398;SDS011;3740;50.700;7.184;2022-08-19T11:17:59;8.95;;;8.35;;
7398;SDS011;3740;50.700;7.184;2022-08-19T11:20:25;14.30;;;12.93;;
7398;SDS011;3740;50.700;7.184;2022-08-19T11:22:51;8.35;;;7.75;;
7398;SDS011;3740;50.700;7.184;2022-08-19T11:25:18;10.55;;;9.77;;
7398;SDS011;3740;50.700;7.184;2022-08-19T11:27:44;8.07;;;7.38;;
7398;SDS011;3740;50.700;7.184;2022-08-19T11:30:11;23.08;;;21.15;;
7398;SDS011;3740;50.700;7.184;2022-08-19T11:32:38;12.65;;;11.57;;
7398;SDS011;3740;50.700;7.184;2022-08-19T11:35:05;12.95;;;11.90;;
7398;SDS011;3740;50.700;7.184;2022-08-19T11:37:30;8.25;;;7.55;;
7398;SDS011;3740;50.700;7.184;2022-08-19T11:39:56;6.90;;;6.40;;
7398;SDS011;3740;50.700;7.184;2022-08-19T11:42:22;8.68;;;7.88;;
7398;SDS011;3740;50.700;7.184;2022-08-19T11:45:06;6.30;;;5.80;;
7398;SDS011;3740;50.700;7.184;2022-08-19T11:47:32;9.95;;;9.05;;
7398;SDS011;3740;50.700;7.184;2022-08-19T11:49:58;7.15;;;6.65;;
7398;SDS011;3740;50.700;7.184;2022-08-19T11:52:24;8.45;;;7.75;;
7398;SDS011;3740;50.700;7.184;2022-08-19T11:54:50;37.78;;;10.75;;
7398;SDS011;3740;50.700;7.184;2022-08-19T11:57:16;7.00;;;6.30;;
7398;SDS011;3740;50.700;7.184;2022-08-19T11:59:42;7.63;;;6.88;;
7398;SDS011;3740;50.700;7.184;2022-08-19T12:02:12;6.60;;;6.05;;
7398;SDS011;3740;50.700;7.184;2022-08-19T12:04:41;6.90;;;6.35;;
7398;SDS011;3740;50.700;7.184;2022-08-19T12:07:07;5.60;;;5.20;;
7398;SDS011;3740;50.700;7.184;2022-08-19T12:09:33;5.38;;;4.97;;
7398;SDS011;3740;50.700;7.184;2022-08-19T12:11:59;5.63;;;5.10;;
7398;SDS011;3740;50.700;7.184;2022-08-19T12:14:27;7.85;;;7.22;;
7398;SDS011;3740;50.700;7.184;2022-08-19T12:16:55;6.13;;;5.70;;
7398;SDS011;3740;50.700;7.184;2022-08-19T12:19:20;5.88;;;5.38;;
7398;SDS011;3740;50.700;7.184;2022-08-19T12:21:46;5.65;;;5.25;;
7398;SDS011;3740;50.700;7.184;2022-08-19T12:24:12;6.53;;;5.97;;
7398;SDS011;3740;50.700;7.184;2022-08-19T12:26:38;6.20;;;5.70;;
7398;SDS011;3740;50.700;7.184;2022-08-19T12:29:04;5.55;;;5.05;;
7398;SDS011;3740;50.700;7.184;2022-08-19T12:31:31;5.70;;;5.18;;
7398;SDS011;3740;50.700;7.184;2022-08-19T12:33:57;6.93;;;6.32;;
7398;SDS011;3740;50.700;7.184;2022-08-19T12:36:23;7.55;;;7.05;;
7398;SDS011;3740;50.700;7.184;2022-08-19T12:38:50;7.43;;;6.82;;
7398;SDS011;3740;50.700;7.184;2022-08-19T12:41:16;8.13;;;7.43;;
7398;SDS011;3740;50.700;7.184;2022-08-19T12:43:43;8.02;;;7.47;;
7398;SDS011;3740;50.700;7.184;2022-08-19T12:46:10;6.05;;;5.60;;
7398;SDS011;3740;50.700;7.184;2022-08-19T12:48:40;7.25;;;6.53;;
7398;SDS011;3740;50.700;7.184;2022-08-19T12:51:10;6.55;;;6.03;;
7398;SDS011;3740;50.700;7.184;2022-08-19T12:53:38;6.97;;;6.47;;
7398;SDS011;3740;50.700;7.184;2022-08-19T12:56:05;6.43;;;5.93;;
7398;SDS011;3740;50.700;7.184;2022-08-19T12:58:32;7.13;;;6.65;;
7398;SDS011;3740;50.700;7.184;2022-08-19T13:00:59;6.90;;;6.40;;
7398;SDS011;3740;50.700;7.184;2022-08-19T13:03:30;6.32;;;5.93;;
7398;SDS011;3740;50.700;7.184;2022-08-19T13:05:56;6.40;;;6.00;;
7398;SDS011;3740;50.700;7.184;2022-08-19T13:08:22;7.18;;;6.60;;
7398;SDS011;3740;50.700;7.184;2022-08-19T13:10:47;7.90;;;7.28;;
7398;SDS011;3740;50.700;7.184;2022-08-19T13:13:13;8.93;;;8.23;;
7398;SDS011;3740;50.700;7.184;2022-08-19T13:15:40;8.52;;;7.88;;
7398;SDS011;3740;50.700;7.184;2022-08-19T13:18:07;8.50;;;7.90;;
7398;SDS011;3740;50.700;7.184;2022-08-19T13:20:37;8.30;;;7.70;;
7398;SDS011;3740;50.700;7.184;2022-08-19T13:23:05;8.77;;;8.07;;
7398;SDS011;3740;50.700;7.184;2022-08-19T13:25:32;9.57;;;8.65;;
7398;SDS011;3740;50.700;7.184;2022-08-19T13:27:57;8.05;;;7.55;;
7398;SDS011;3740;50.700;7.184;2022-08-19T13:30:24;8.65;;;7.95;;
7398;SDS011;3740;50.700;7.184;2022-08-19T13:33:08;9.70;;;8.95;;
7398;SDS011;3740;50.700;7.184;2022-08-19T13:35:39;8.57;;;7.88;;
7398;SDS011;3740;50.700;7.184;2022-08-19T13:38:16;8.57;;;7.97;;
7398;SDS011;3740;50.700;7.184;2022-08-19T13:40:44;7.43;;;6.93;;
7398;SDS011;3740;50.700;7.184;2022-08-19T13:43:11;7.82;;;7.22;;
7398;SDS011;3740;50.700;7.184;2022-08-19T13:45:36;7.70;;;7.10;;
7398;SDS011;3740;50.700;7.184;2022-08-19T13:48:06;8.32;;;7.53;;
7398;SDS011;3740;50.700;7.184;2022-08-19T13:50:34;7.45;;;6.95;;
7398;SDS011;3740;50.700;7.184;2022-08-19T13:53:03;7.85;;;7.18;;
7398;SDS011;3740;50.700;7.184;2022-08-19T13:55:29;8.05;;;7.45;;
7398;SDS011;3740;50.700;7.184;2022-08-19T13:57:55;7.22;;;6.72;;
7398;SDS011;3740;50.700;7.184;2022-08-19T14:00:26;8.00;;;7.40;;
7398;SDS011;3740;50.700;7.184;2022-08-19T14:02:55;8.40;;;7.70;;
7398;SDS011;3740;50.700;7.184;2022-08-19T14:05:25;9.40;;;8.68;;
7398;SDS011;3740;50.700;7.184;2022-08-19T14:07:52;8.60;;;7.93;;
7398;SDS011;3740;50.700;7.184;2022-08-19T14:10:18;8.93;;;8.13;;
7398;SDS011;3740;50.700;7.184;2022-08-19T14:12:44;8.80;;;8.20;;
7398;SDS011;3740;50.700;7.184;2022-08-19T14:15:11;8.88;;;8.20;;
7398;SDS011;3740;50.700;7.184;2022-08-19T14:17:38;8.38;;;7.57;;
7398;SDS011;3740;50.700;7.184;2022-08-19T14:20:05;8.98;;;8.20;;
7398;SDS011;3740;50.700;7.184;2022-08-19T14:22:39;7.75;;;7.15;;
7398;SDS011;3740;50.700;7.184;2022-08-19T14:25:07;8.35;;;7.63;;
7398;SDS011;3740;50.700;7.184;2022-08-19T14:27:34;9.88;;;8.20;;
7398;SDS011;3740;50.700;7.184;2022-08-19T14:30:01;8.40;;;7.60;;
7398;SDS011;3740;50.700;7.184;2022-08-19T14:32:28;10.27;;;9.38;;
7398;SDS011;3740;50.700;7.184;2022-08-19T14:34:54;9.10;;;8.23;;
7398;SDS011;3740;50.700;7.184;2022-08-19T14:37:20;7.70;;;7.10;;
7398;SDS011;3740;50.700;7.184;2022-08-19T14:39:47;8.23;;;7.63;;
7398;SDS011;3740;50.700;7.184;2022-08-19T14:42:13;9.13;;;8.25;;
7398;SDS011;3740;50.700;7.184;2022-08-19T14:44:41;9.90;;;9.10;;
7398;SDS011;3740;50.700;7.184;2022-08-19T14:47:07;10.02;;;9.13;;
7398;SDS011;3740;50.700;7.184;2022-08-19T14:49:37;9.93;;;8.95;;
7398;SDS011;3740;50.700;7.184;2022-08-19T14:52:04;9.38;;;8.57;;
7398;SDS011;3740;50.700;7.184;2022-08-19T14:54:30;10.43;;;9.43;;
7398;SDS011;3740;50.700;7.184;2022-08-19T14:56:56;9.55;;;8.73;;
7398;SDS011;3740;50.700;7.184;2022-08-19T14:59:25;10.10;;;8.80;;
7398;SDS011;3740;50.700;7.184;2022-08-19T15:01:51;8.25;;;7.65;;
7398;SDS011;3740;50.700;7.184;2022-08-19T15:04:16;10.63;;;8.68;;
7398;SDS011;3740;50.700;7.184;2022-08-19T15:06:42;10.18;;;9.38;;
7398;SDS011;3740;50.700;7.184;2022-08-19T15:09:07;9.85;;;8.80;;
7398;SDS011;3740;50.700;7.184;2022-08-19T15:11:39;10.23;;;9.23;;
7398;SDS011;3740;50.700;7.184;2022-08-19T15:14:05;8.85;;;8.13;;
7398;SDS011;3740;50.700;7.184;2022-08-19T15:16:31;9.52;;;8.73;;
7398;SDS011;3740;50.700;7.184;2022-08-19T15:18:57;9.77;;;8.88;;
7398;SDS011;3740;50.700;7.184;2022-08-19T15:21:25;8.55;;;7.72;;
7398;SDS011;3740;50.700;7.184;2022-08-19T15:23:52;10.25;;;9.25;;